Departure ICAO
Arrival ICAO

The revolutionary moving map for travelling passengers has finally arrived
More information here

LFMD Cannes Mandelieu - EGKB Biggin Hill


Distance 545 NM


LFMN Nice Cote D'Azur VFR CAVOK

METAR LFMN 200700Z 34012KT CAVOK 16/M00 Q1015

TAF LFMN 200200Z 2003/2109 34010KT CAVOK BECMG 2008/2010 18010KT BECMG 2018/2020 34010KT BECMG 2107/2109 09010KT


LFMD Cannes Mandelieu VFR CAVOK

METAR LFMD 200700Z AUTO 35005KT 320V030 CAVOK 12/05 Q1016 NOSIG

TAF LFMD 200200Z 2003/2103 36005KT CAVOK BECMG 2008/2010 16005KT BECMG 2020/2022 35005KT


LFLB Chambery Aix Les Bains IFR CAT I

METAR LFLB 200700Z AUTO 08003KT 9999 OVC006 09/08 Q1023 TEMPO 0400 FG BECMG BKN012

TAF LFLB 200500Z 2006/2106 VRB02KT 9999 BKN012 PROB40 TEMPO 2006/2008 0400 FG SCT002 BECMG 2009/2011 CAVOK TEMPO 2011/2018 36012KT PROB30 TEMPO 2102/2106 0400 FG VV///


LFLS Grenoble Saint Geoirs VFR

METAR LFLS 200700Z AUTO VRB03KT 9999 BKN012 10/07 Q1023 TEMPO 0400 FG VV///

TAF LFLS 200200Z 2003/2103 VRB03KT 9999 BKN012 TEMPO 2003/2008 3000 BR OVC006 PROB40 TEMPO 2003/2008 0400 FG VV/// FM200900 36008KT 9999 BKN020 BECMG 2011/2013 CAVOK BECMG 2017/2019 VRB02KT PROB40 TEMPO 2100/2103 0400 FG VV///


LFLL Lyon Saint Exupery VFR

METAR LFLL 200700Z 33004KT 9999 MIFG NSC 09/07 Q1023 NOSIG

TAF LFLL 200500Z 2006/2112 34007KT 7000 NSC PROB30 TEMPO 2006/2008 0800 BCFG BKN001 BECMG 2007/2009 9999 SCT015 BECMG 2010/2013 CAVOK BECMG 2019/2022 VRB02KT PROB40 TEMPO 2103/2107 2000 BR BECMG 2110/2112 12005KT


LFLY Lyon Bron VFR

METAR LFLY 200700Z AUTO VRB02KT 9999 BKN033 10/08 Q1023 TEMPO 3000 BR BKN006

TAF LFLY 200500Z 2006/2106 35004KT CAVOK PROB30 TEMPO 2006/2008 3000 BR BKN006 BECMG 2010/2012 36012KT BECMG 2019/2021 VRB02KT PROB30 TEMPO 2103/2106 0400 FG VV///


LFLN Saint Yan IFR CAT I

METAR LFLN 200700Z AUTO VRB03KT 2000 1300 R33/2000D BR VV/// 09/09 Q1024 BECMG 9999 NSW OVC003

TAF LFLN 200500Z 2006/2015 VRB02KT 9999 OVC003 TEMPO 2006/2008 3000 BR PROB30 TEMPO 2006/2008 0500 FG VV/// BECMG 2009/2012 CAVOK


LFPM Melun Villaroche IFR CAT I

METAR LFPM 200700Z AUTO 16002KT 1400 BCFG NSC 08/08 Q1023


LFPO Paris Orly VFR CAVOK

METAR LFPO 200700Z 20002KT CAVOK 08/08 Q1023 NOSIG

TAF LFPO 200500Z 2006/2112 21004KT 9999 SCT040 PROB30 TEMPO 2006/2008 0400 BCFG PROB30 TEMPO 2100/2106 4000 MIFG


LFPG Paris Charles De Gaulle VFR CAVOK

METAR LFPG 200700Z 19003KT CAVOK 10/08 Q1023 NOSIG

TAF LFPG 200500Z 2006/2112 16003KT CAVOK PROB40 TEMPO 2006/2007 4000 BR PROB30 TEMPO 2006/2007 0400 BCFG SCT001 BECMG 2009/2011 19005KT BECMG 2020/2022 13005KT TX18/2014Z TN08/2105Z


LFPB Paris Le Bourget VFR CAVOK

METAR LFPB 200700Z AUTO 00000KT CAVOK 08/08 Q1023 NOSIG

TAF LFPB 200500Z 2006/2106 16003KT CAVOK PROB30 TEMPO 2006/2007 4000 BR BECMG 2009/2011 19005KT BECMG 2020/2022 13005KT


LFPV Villacoublay Velizy VFR CAVOK

METAR LFPV 200700Z AUTO 21003KT 180V240 CAVOK 10/08 Q1023 TEMPO 0400 BCFG

TAF LFPV 200200Z 2003/2103 VRB02KT CAVOK PROB40 TEMPO 2003/2008 3000 BR PROB30 TEMPO 2003/2008 0400 BCFG SCT005 BECMG 2008/2010 25005KT SCT030 PROB40 TEMPO 2100/2103 3000 BR


LFPN Toussous Le Noble VFR CAVOK

METAR LFPN 200700Z AUTO 00000KT CAVOK 09/08 Q1023 TEMPO 0400 FG VV///

TAF LFPN 200500Z 2006/2015 VRB02KT 9999 SCT030 PROB30 TEMPO 2006/2008 0400 FG VV///


LFPT Pontoise Cormeilles En Vexin IFR CAT I

METAR LFPT 200700Z AUTO 00000KT 6000 VV/// 08/08 Q1023


LFOB Beauvais Tille VFR

METAR LFOB 200700Z AUTO 00000KT 6000 NSC 08/08 Q1022 NOSIG

TAF LFOB 200500Z 2006/2106 VRB02KT 3000 BR NSC TEMPO 2006/2007 0500 BCFG VV/// BECMG 2007/2009 9999 NSW BECMG 2009/2011 21007KT


LFAT Le Tourquet Paris Plage VFR

METAR LFAT 200700Z AUTO 14003KT 9999 SCT026 BKN066 12/12 Q1021 TEMPO BKN013 BECMG 22010KT

TAF LFAT 200500Z 2006/2015 VRB02KT 9999 BKN030 BECMG 2007/2009 22010KT PROB30 TEMPO 2007/2012 -RA BKN013


EGMD Lydd VFR

METAR EGMD 200650Z AUTO 33001KT 6000 NCD 10/10 Q1020

TAF EGMD 200504Z 2006/2015 32005KT 5000 BR FEW045 TEMPO 2006/2009 0800 FG PROB30 TEMPO 2006/2009 0300 BKN001 BECMG 2007/2010 25010KT BECMG 2009/2011 9999 NSW PROB30 TEMPO 2009/2011 BKN010


EGKA Shoreham By Sea Shoreham VFR

METAR EGKA 200650Z 19003KT 9999 FEW015 13/13 Q1020


EGKB Biggin Hill VFR

METAR EGKB 200650Z 22007KT 9999 FEW040 13/11 Q1020

TAF EGKB 200552Z 2006/2015 22008KT 9999 SCT040


EGKK London Gatwick VFR

METAR EGKK 200650Z VRB02KT 9000 3400N VCFG SCT031 SCT038 BKN045 12/11 Q1020

TAF EGKK 200445Z 2006/2112 VRB03KT 9999 FEW040 TEMPO 2006/2009 8000 PROB30 TEMPO 2006/2008 4000 BR BECMG 2009/2012 22010KT


EGLC London City VFR

METAR EGLC 200650Z AUTO 23006KT 180V300 9999 NCD 13/11 Q1020

TAF EGLC 200504Z 2006/2015 24005KT 9999 SCT040 PROB30 TEMPO 2006/2008 8000


EGSS London Stansted IFR CAT I

METAR EGSS 200650Z AUTO 23006KT 4200 BR OVC043 10/10 Q1019

TAF EGSS 200503Z 2006/2112 23005KT 2500 BR BCFG FEW006 SCT040 TEMPO 2006/2009 0800 FG PROB30 TEMPO 2006/2008 0300 BKN001 BECMG 2008/2011 9999 NSW PROB40 TEMPO 2008/2011 BKN007 BECMG 2107/2110 17015KT


EGLL London Heathrow VFR

METAR EGLL 200650Z 21005KT 180V240 9000 FEW037 11/10 Q1020

TAF EGLL 200503Z 2006/2112 21005KT 9999 SCT045 TEMPO 2006/2008 7000 PROB40 TEMPO 2006/2007 3500 BR PROB30 TEMPO 2008/2010 BKN012


EGWU Northolt VFR

METAR EGWU 200650Z 00000KT 9999 5000NW BR FEW040 SCT100 BKN180 08/07 Q1019 WHT BECMG 9999 NSW BLU

TAF EGWU 200424Z 2006/2024 20008KT 9999 SCT030 TEMPO 2006/2008 6000 BR TEMPO 2008/2012 SCT015 PROB30 TEMPO 2012/2024 SCT024


EGLF Farnborough VFR

METAR EGLF 200650Z 17004KT 9999 SCT042 11/11 Q1020

TAF EGLF 200625Z 2006/2015 22008KT 9999 SCT040 PROB30 2006/2008 5000 BR



NOTAMS LFMD

 NOTAMS EGKB